Flight Track Log - Related Links

Times and Time Zones

All times are in EDT time to prevent confusion due to time zone crossing. See the GJS3649 flight status page for this flight to view local times or setup timezone preferences in your user account.

Time Position Orientation Groundspeed Altitude Reporting Facility
EDT Latitude Longitude Course Direction KTS MPH feet Rate Location/Type
Wed 05:20:43 PM 39.0792 -77.6506 317° Northwest 256 295 6,300  Level Washington Center
Wed 05:21:44 PM 39.1519 -77.6606 354° North 272 313 8,800 2,281 Climbing Washington Center
Wed 05:22:44 PM 39.2297 -77.6306 17° North 264 304 10,900 1,600 Climbing Washington Center
Wed 05:23:44 PM 39.3219 -77.5903 19° North 296 341 12,000 1,488 Climbing Washington Center
Wed 05:24:00 PM 39.1434 -77.4500 North  Level FlightAware
Wed 05:24:45 PM 39.4122 -77.5525 18° North 320 368 13,900  Level Washington Center
Wed 05:25:43 PM 39.5108 -77.5122 17° North 349 402 15,800 1,640 Climbing Washington Center
Wed 05:27:04 PM 39.6531 -77.4531 18° North 356 410 17,700 1,532 Climbing New Center
Wed 05:28:04 PM 39.7633 -77.4581 358° North 369 425 19,400 1,600 Climbing New Center
Wed 05:29:04 PM 39.8675 -77.4978 344° North 384 442 20,900 1,424 Climbing New Center
Wed 05:30:02 PM 39.9736 -77.5378 344° North 389 448 22,200 1,008 Climbing New Center
Wed 05:31:03 PM 40.0861 -77.5761 345° North 394 453 22,900 843 Climbing New Center
Wed 05:32:03 PM 40.2003 -77.6197 344° North 416 479 23,900 1,230 Climbing New Center
Wed 05:33:05 PM 40.3150 -77.6556 347° North 421 484 25,400 1,230 Climbing New Center
Wed 05:34:05 PM 40.4292 -77.6997 344° North 421 484 26,400 875 Climbing New Center
Wed 05:38:48 PM 40.9989 -77.9089 345° North 459 528 30,400 840 Climbing Cleveland Center
Wed 05:39:48 PM 41.1211 -77.9536 345° North 459 528 31,200 800 Climbing Cleveland Center
Wed 05:40:48 PM 41.2450 -78.0011 344° North 459 528 32,000 800 Climbing Cleveland Center
Wed 05:41:48 PM 41.3692 -78.0458 345° North 464 534 32,800 750 Climbing Cleveland Center
Wed 05:42:48 PM 41.4911 -78.0911 344° North 459 528 33,500 605 Climbing Cleveland Center
Wed 05:43:47 PM 41.6128 -78.1364 344° North 459 528 34,000 250 Climbing Cleveland Center
Wed 05:44:48 PM 41.7347 -78.1844 344° North 459 528 34,000  Level Cleveland Center
Wed 05:45:48 PM 41.8461 -78.2278 344° North 459 528 34,000  Level Cleveland Center
Wed 05:46:48 PM 41.9661 -78.2736 344° North 459 528 34,000  Level Cleveland Center
Wed 05:47:48 PM 42.0856 -78.3169 345° North 448 516 34,000  Level Cleveland Center
Wed 05:48:48 PM 42.2181 -78.3683 344° North 448 516 34,000  Level Cleveland Center
Wed 05:49:48 PM 42.3397 -78.4172 343° North 443 510 34,000  Level Cleveland Center
Wed 05:50:48 PM 42.4594 -78.4667 343° North 443 510 34,000 50 Level Cleveland Center
Wed 05:51:48 PM 42.5833 -78.5133 344° North 449 517 34,100 500 Climbing Cleveland Center
Wed 05:52:48 PM 42.7072 -78.5600 345° North 454 522 35,000 800 Climbing Cleveland Center
Wed 05:53:48 PM 42.8272 -78.6269 338° Northwest 461 531 35,700 850 Climbing Cleveland Center
Wed 05:54:48 PM 42.9081 -78.7381 315° West 420 483 36,700 1,000 Climbing Cleveland Center
Wed 05:55:48 PM 42.9353 -78.8789 285° West 382 440 37,700 500 Climbing Cleveland Center
Wed 05:56:48 PM 42.9953 -78.9822 308° West 382 440 37,700 171 Level Cleveland Center
Wed 05:57:33 PM 42.9167 -79.0833 223° Southwest 360 414 38,000 171 Climbing Toronto Center
Wed 05:58:33 PM 42.9333 -79.2500 278° West 370 426 38,000  Level Toronto Center
Wed 05:59:33 PM 42.9333 -79.3833 270° West 370 426 38,000  Level Toronto Center
Wed 06:00:33 PM 42.9500 -79.5167 280° West 370 426 38,000  Level Toronto Center
Wed 06:01:33 PM 42.9500 -79.6500 270° West 370 426 38,000  Level Toronto Center
Wed 06:02:33 PM 42.9667 -79.8000 279° West 370 426 38,000  Level Toronto Center
Wed 06:03:33 PM 42.9667 -79.9333 270° West 380 437 38,000  Level Toronto Center
Wed 06:04:33 PM 42.9833 -80.0833 279° West 380 437 38,000  Level Toronto Center
Wed 06:05:33 PM 42.9833 -80.2333 270° West 370 426 38,000  Level Toronto Center
Wed 06:06:33 PM 43.0000 -80.3833 279° West 380 437 38,000  Level Toronto Center
Wed 06:07:33 PM 43.0000 -80.5000 270° West 380 437 38,000  Level Toronto Center
Wed 06:08:33 PM 43.0000 -80.6667 270° West 380 437 38,000  Level Toronto Center
Wed 06:09:33 PM 43.0167 -80.8000 280° West 380 437 38,000  Level Toronto Center
Wed 06:10:33 PM 43.0167 -80.9500 270° West 390 449 38,000  Level Toronto Center
Wed 06:11:33 PM 43.0167 -81.1000 270° West 380 437 38,000  Level Toronto Center
Wed 06:12:33 PM 43.0167 -81.2500 270° West 380 437 38,000  Level Toronto Center
Wed 06:13:33 PM 43.0167 -81.3833 270° West 380 437 38,000  Level Toronto Center
Wed 06:14:33 PM 43.0167 -81.5333 270° West 380 437 38,000  Level Toronto Center
Wed 06:15:33 PM 43.0167 -81.6667 270° West 370 426 38,000  Level Toronto Center
Wed 06:16:33 PM 43.0167 -81.8000 270° West 360 414 38,000  Level Toronto Center
Wed 06:17:33 PM 43.0000 -81.9333 260° West 360 414 38,000  Level Toronto Center
Wed 06:18:33 PM 43.0000 -82.1000 270° West 370 426 38,000  Level Toronto Center
Wed 06:19:33 PM 43.0000 -82.2167 270° West 370 426 38,000  Level Toronto Center
Wed 06:20:33 PM 43.0167 -82.3500 280° West 370 426 38,000  Level Toronto Center
Wed 06:21:33 PM 43.0500 -82.5000 287° West 390 449 38,000  Level Toronto Center
Wed 06:22:33 PM 43.0833 -82.6500 287° West 390 449 38,000  Level Toronto Center
Wed 06:23:12 PM 43.1278 -82.7394 304° West 389 448 38,000  Level Cleveland Center
Wed 06:24:12 PM 43.1669 -82.8775 291° West 389 448 38,000  Level Cleveland Center
Wed 06:25:12 PM 43.2056 -83.0156 291° West 395 455 38,000  Level Cleveland Center
Wed 06:26:12 PM 43.2486 -83.1511 294° West 395 455 38,000  Level Cleveland Center
Wed 06:27:12 PM 43.2850 -83.2867 290° West 395 455 38,000  Level Cleveland Center
Wed 06:28:12 PM 43.3236 -83.4169 292° West 384 442 38,000  Level Cleveland Center
Wed 06:29:12 PM 43.3581 -83.5414 291° West 366 421 38,000  Level Cleveland Center
Wed 06:30:02 PM 43.3867 -83.6450 291° West 349 402 38,000  Level Minneapolis Center
Wed 06:31:16 PM 43.4283 -83.7944 291° West 349 402 38,000  Level Minneapolis Center
Wed 06:32:30 PM 43.4642 -83.9225 291° West 356 410 38,000  Level Minneapolis Center
Wed 06:33:33 PM 43.5078 -84.0803 291° West 366 421 38,000  Level Minneapolis Center
Wed 06:34:35 PM 43.5444 -84.2153 291° West 374 430 38,000  Level Minneapolis Center
Wed 06:35:36 PM 43.5747 -84.3253 291° West 380 437 38,000  Level Minneapolis Center
Wed 06:36:39 PM 43.6278 -84.5192 291° West 388 447 38,000  Level Minneapolis Center
Wed 06:37:53 PM 43.6667 -84.6578 291° West 389 448 38,000  Level Minneapolis Center
Wed 06:38:56 PM 43.7125 -84.8269 291° West 393 452 38,000  Level Minneapolis Center
Wed 06:39:58 PM 43.7494 -84.9689 290° West 394 453 38,000  Level Minneapolis Center
Wed 06:41:00 PM 43.7892 -85.1131 291° West 398 458 38,000  Level Minneapolis Center
Wed 06:42:02 PM 43.8356 -85.2869 290° West 401 461 38,000  Level Minneapolis Center
Wed 06:43:04 PM 43.8733 -85.4314 290° West 402 463 38,000  Level Minneapolis Center
Wed 06:44:06 PM 43.9036 -85.5492 290° West 403 464 38,000  Level Minneapolis Center
Wed 06:45:08 PM 43.9492 -85.7228 290° West 404 465 38,000  Level Minneapolis Center
Wed 06:46:10 PM 43.9869 -85.8697 290° West 408 470 38,000  Level Minneapolis Center
Wed 06:47:24 PM 44.0333 -86.0492 290° West 414 476 38,000  Level Minneapolis Center
Wed 06:48:27 PM 44.0786 -86.2300 289° West 416 479 38,000  Level Minneapolis Center
Wed 06:49:29 PM 44.1167 -86.3800 290° West 415 478 38,000  Level Minneapolis Center
Wed 06:50:31 PM 44.1561 -86.5389 289° West 412 474 38,000  Level Minneapolis Center
Wed 06:51:33 PM 44.1928 -86.6847 289° West 401 461 38,000  Level Minneapolis Center
Wed 06:52:35 PM 44.2286 -86.8306 289° West 398 458 38,000  Level Minneapolis Center
Wed 06:53:37 PM 44.2656 -86.9803 289° West 406 467 38,000  Level Minneapolis Center
Wed 06:54:39 PM 44.3022 -87.1308 289° West 409 471 38,000  Level Minneapolis Center
Wed 06:55:42 PM 44.3442 -87.3014 289° West 412 474 38,000  Level Minneapolis Center
Wed 06:56:44 PM 44.3872 -87.4797 289° West 415 478 38,000  Level Minneapolis Center
Wed 06:57:46 PM 44.4247 -87.6350 289° West 420 483 38,000  Level Minneapolis Center
Wed 06:58:48 PM 44.4617 -87.7897 289° West 419 482 38,000  Level Minneapolis Center
Wed 07:00:02 PM 44.4972 -87.9439 288° West 418 481 38,000  Level Minneapolis Center
Wed 07:01:05 PM 44.5450 -88.1500 288° West 421 484 38,000 -192 Level Minneapolis Center
Wed 07:02:07 PM 44.5675 -88.3094 281° West 419 482 37,600 -484 Descending Minneapolis Center
Wed 07:03:09 PM 44.5878 -88.4722 280° West 426 490 37,000 -532 Descending Minneapolis Center
Wed 07:04:11 PM 44.6064 -88.6350 279° West 424 488 36,500 -726 Descending Minneapolis Center
Wed 07:05:13 PM 44.6244 -88.7964 279° West 420 483 35,500 -1,065 Descending Minneapolis Center
Wed 07:06:15 PM 44.6464 -88.9856 279° West 421 484 34,300 -1,065 Descending Minneapolis Center
Wed 07:07:17 PM 44.6639 -89.1467 279° West 418 481 33,300 -968 Descending Minneapolis Center
Wed 07:08:19 PM 44.6819 -89.3103 279° West 425 489 32,300 -629 Descending Minneapolis Center
Wed 07:09:21 PM 44.7003 -89.4769 279° West 429 494 32,000 -145 Descending Minneapolis Center
Wed 07:10:23 PM 44.7181 -89.6431 279° West 429 494 32,000  Level Minneapolis Center
Wed 07:11:26 PM 44.7381 -89.8358 278° West 428 493 32,000  Level Minneapolis Center
Wed 07:12:28 PM 44.7556 -90.0025 278° West 431 496 32,000  Level Minneapolis Center
Wed 07:13:30 PM 44.7722 -90.1642 278° West 421 484 32,000  Level Minneapolis Center
Wed 07:14:32 PM 44.7883 -90.3269 278° West 420 483 32,000 -194 Level Minneapolis Center
Wed 07:15:34 PM 44.8067 -90.4889 279° West 419 482 31,600 -823 Descending Minneapolis Center
Wed 07:16:36 PM 44.8314 -90.6489 282° West 415 478 30,300 -1,645 Descending Minneapolis Center
Wed 07:17:38 PM 44.8567 -90.8453 280° West 422 486 28,200 -1,984 Descending Minneapolis Center
Wed 07:18:40 PM 44.8772 -90.9992 281° West 409 471 26,200 -1,935 Descending Minneapolis Center
Wed 07:19:42 PM 44.8983 -91.1622 280° West 417 480 24,200 -1,935 Descending Minneapolis Center
Wed 07:20:44 PM 44.9219 -91.3206 282° West 417 480 22,200 -1,935 Descending Minneapolis Center
Wed 07:21:46 PM 44.9408 -91.4742 280° West 406 467 20,200 -1,920 Descending Minneapolis Center
Wed 07:22:49 PM 44.9614 -91.6258 281° West 398 458 18,200 -2,016 Descending Minneapolis Center
Wed 07:23:51 PM 44.9881 -91.8011 282° West 387 445 16,000 -1,839 Descending Minneapolis Center
Wed 07:24:53 PM 45.0058 -91.9456 280° West 376 433 14,400 -1,452 Descending Minneapolis Center
Wed 07:25:55 PM 45.0236 -92.0878 280° West 371 427 13,000 -1,355 Descending Minneapolis Center
Wed 07:26:57 PM 45.0414 -92.2272 280° West 364 419 11,600 -968 Descending Minneapolis Center
Wed 07:27:59 PM 45.0372 -92.3675 268° West 363 418 11,000 -529 Descending Minneapolis Center
Wed 07:29:13 PM 45.0147 -92.5128 258° West 306 352 10,400 -846 Descending Minneapolis Center
Wed 07:30:28 PM 44.9539 -92.6044 227° Southwest 271 312 8,900 -1,445 Descending Minneapolis Center
Wed 07:31:30 PM 44.8847 -92.6772 217° Southwest 257 296 7,100 -968 Descending Minneapolis Center
Wed 07:32:32 PM 44.8331 -92.7328 217° Southwest 238 274 6,900 -823 Descending Minneapolis Center
Wed 07:33:34 PM 44.7844 -92.7911 220° Southwest 231 266 5,400 -919 Descending Minneapolis Center
Wed 07:34:36 PM 44.7539 -92.8619 239° Southwest 221 254 5,000 -672 Descending Minneapolis Center
Wed 07:35:39 PM 44.7761 -92.9556 289° West 220 253 4,000 -624 Descending Minneapolis Center
Wed 07:36:41 PM 44.8069 -93.0231 303° West 209 241 3,700 -581 Descending Minneapolis Center
Wed 07:37:43 PM 44.8286 -93.0736 301° West 154 177 2,800 -774 Descending Minneapolis Center
Wed 07:38:45 PM 44.8483 -93.1183 302° West 138 159 2,100 -677 Descending Minneapolis Center
Wed 07:39:47 PM 44.8683 -93.1636 302° West 137 158 1,400 -677 Descending Minneapolis Center
Wed 07:41:00 PM 44.8667 -93.2167 235° Southwest  Level FlightAware
Wed 07:48:00 PM 44.8820 -93.2218 235° Southwest  Level Estimated

Login

Don't have an account? Register now (free) for customized features, flight alerts, and more!